createdAt,value
2017-07-10T00:02:25.898Z,30.30
2017-07-10T00:04:53.610Z,30.20
2017-07-10T00:07:21.338Z,30.20
2017-07-10T00:09:49.112Z,30.30
2017-07-10T00:12:16.847Z,30.30
2017-07-10T00:14:44.617Z,30.30
2017-07-10T00:17:12.333Z,30.30
2017-07-10T00:19:40.047Z,30.20
2017-07-10T00:22:07.811Z,30.20
2017-07-10T00:24:35.549Z,30.20
2017-07-10T00:27:03.273Z,30.20
2017-07-10T00:29:31.042Z,30.20
2017-07-10T00:31:58.834Z,30.20
2017-07-10T00:34:26.550Z,30.10
2017-07-10T00:36:54.317Z,30.10
2017-07-10T00:39:22.034Z,30.10
2017-07-10T00:41:49.752Z,30.10
2017-07-10T00:44:17.529Z,30.10
2017-07-10T00:46:45.247Z,30.00
2017-07-10T00:49:13.011Z,30.00
2017-07-10T00:51:40.811Z,30.00
2017-07-10T00:54:08.587Z,30.00
2017-07-10T00:56:36.365Z,30.00
2017-07-10T00:59:04.149Z,30.00
2017-07-10T01:01:31.927Z,29.90
2017-07-10T01:03:59.655Z,29.90
2017-07-10T01:06:27.419Z,29.90
2017-07-10T01:08:55.139Z,30.00
2017-07-10T01:11:22.913Z,30.00
2017-07-10T01:13:50.622Z,29.90
2017-07-10T01:16:18.362Z,29.90
2017-07-10T01:18:46.133Z,29.90
2017-07-10T01:21:13.912Z,29.90
2017-07-10T01:23:41.693Z,29.80
2017-07-10T01:26:09.456Z,29.80
2017-07-10T01:28:37.235Z,29.80
2017-07-10T01:31:04.965Z,29.70
2017-07-10T01:33:32.704Z,29.70
2017-07-10T01:36:00.410Z,29.70
2017-07-10T01:38:28.890Z,29.60
2017-07-10T01:40:56.656Z,29.60
2017-07-10T01:43:24.375Z,29.60
2017-07-10T01:45:52.099Z,29.60
2017-07-10T01:48:19.867Z,29.50
2017-07-10T01:50:47.578Z,29.50
2017-07-10T01:53:15.374Z,29.40
2017-07-10T01:55:43.852Z,29.40
2017-07-10T01:58:11.656Z,29.30
2017-07-10T02:00:39.402Z,29.40
2017-07-10T02:03:07.120Z,29.30
2017-07-10T02:05:34.841Z,29.40
2017-07-10T02:08:03.320Z,29.40
2017-07-10T02:10:31.090Z,29.40
2017-07-10T02:12:58.864Z,29.40
2017-07-10T02:15:26.640Z,29.20
2017-07-10T02:17:54.411Z,29.20
2017-07-10T02:20:22.118Z,29.10
2017-07-10T02:22:49.894Z,29.00
2017-07-10T02:25:17.673Z,29.00
2017-07-10T02:27:45.391Z,28.90
2017-07-10T02:30:13.183Z,28.90
2017-07-10T02:32:40.885Z,28.90
2017-07-10T02:35:09.379Z,28.80
2017-07-10T02:37:37.154Z,28.80
2017-07-10T02:40:04.872Z,28.80
2017-07-10T02:42:32.650Z,28.80
2017-07-10T02:45:00.423Z,28.80
2017-07-10T02:47:28.140Z,28.70
2017-07-10T02:49:55.920Z,28.80
2017-07-10T02:52:23.708Z,28.70
2017-07-10T02:54:51.415Z,28.70
2017-07-10T02:57:19.175Z,28.80
2017-07-10T02:59:47.741Z,28.80
2017-07-10T03:02:15.518Z,28.80
2017-07-10T03:04:43.233Z,28.80
2017-07-10T03:07:10.973Z,28.80
2017-07-10T03:09:38.740Z,28.90
2017-07-10T03:12:06.456Z,28.90
2017-07-10T03:14:34.180Z,28.80
2017-07-10T03:17:01.958Z,28.90
2017-07-10T03:19:29.728Z,28.90
2017-07-10T03:21:57.517Z,28.90
2017-07-10T03:24:25.309Z,28.80
2017-07-10T03:26:53.031Z,28.80
2017-07-10T03:29:20.762Z,28.80
2017-07-10T03:31:48.471Z,28.80
2017-07-10T03:34:16.230Z,28.80
2017-07-10T03:36:43.976Z,28.80
2017-07-10T03:39:11.745Z,28.70
2017-07-10T03:41:39.543Z,28.70
2017-07-10T03:44:07.264Z,28.70
2017-07-10T03:46:34.979Z,28.70
2017-07-10T03:49:02.751Z,28.70
2017-07-10T03:51:30.491Z,28.70
2017-07-10T03:53:58.261Z,28.70
2017-07-10T03:56:26.040Z,28.70
2017-07-10T03:58:53.831Z,28.70
2017-07-10T04:01:21.599Z,28.70
2017-07-10T04:03:49.317Z,28.70
2017-07-10T04:06:17.055Z,28.60
2017-07-10T04:08:44.823Z,28.50
2017-07-10T04:11:12.523Z,28.50
2017-07-10T04:13:40.318Z,28.50
2017-07-10T04:16:08.035Z,28.50
2017-07-10T04:18:35.770Z,28.50
2017-07-10T04:21:03.572Z,28.50
2017-07-10T04:23:31.294Z,28.50
2017-07-10T04:25:59.109Z,28.50
2017-07-10T04:28:26.884Z,28.50
2017-07-10T04:30:54.604Z,28.60
2017-07-10T04:33:22.306Z,28.50
2017-07-10T04:35:50.108Z,28.50
2017-07-10T04:38:17.907Z,28.40
2017-07-10T04:40:46.397Z,28.40
2017-07-10T04:43:14.170Z,28.30
2017-07-10T04:45:41.947Z,28.40
2017-07-10T04:48:09.709Z,28.30
2017-07-10T04:50:37.435Z,28.30
2017-07-10T04:53:05.148Z,28.30
2017-07-10T04:55:32.920Z,28.20
2017-07-10T04:58:00.764Z,28.30
2017-07-10T05:00:28.523Z,28.20
2017-07-10T05:02:56.242Z,28.20
2017-07-10T05:05:23.977Z,28.20
2017-07-10T05:07:52.844Z,28.30
2017-07-10T05:10:20.617Z,28.30
2017-07-10T05:12:48.353Z,28.20
2017-07-10T05:15:16.135Z,28.30
2017-07-10T05:17:43.836Z,28.30
2017-07-10T05:20:11.550Z,28.30
2017-07-10T05:22:39.270Z,28.30
2017-07-10T05:25:07.427Z,28.30
2017-07-10T05:27:36.268Z,28.30
2017-07-10T05:30:04.083Z,28.30
2017-07-10T05:32:32.590Z,28.30
2017-07-10T05:35:00.423Z,28.30
2017-07-10T05:37:28.159Z,28.30
2017-07-10T05:39:55.923Z,28.30
2017-07-10T05:42:25.449Z,28.40
2017-07-10T05:44:53.216Z,28.40
2017-07-10T05:47:26.172Z,28.40
2017-07-10T05:49:57.118Z,28.50
2017-07-10T05:52:39.194Z,28.60
2017-07-10T05:55:06.920Z,28.60
2017-07-10T05:57:34.697Z,28.70
2017-07-10T06:00:02.470Z,28.60
2017-07-10T06:02:30.212Z,28.60
2017-07-10T06:04:59.685Z,28.60
2017-07-10T06:07:29.183Z,28.60
2017-07-10T06:12:46.111Z,28.60
2017-07-10T06:15:14.673Z,28.50
2017-07-10T06:17:42.433Z,28.50
2017-07-10T06:20:10.210Z,28.50
2017-07-10T06:22:37.971Z,28.50
2017-07-10T06:25:05.815Z,28.50
2017-07-10T06:27:33.568Z,28.50
2017-07-10T06:30:01.380Z,28.50
2017-07-10T06:32:30.562Z,28.60
2017-07-10T06:34:59.591Z,28.60
2017-07-10T06:42:57.644Z,28.60
2017-07-10T06:45:30.398Z,28.60
2017-07-10T07:27:32.038Z,28.70
2017-07-10T07:29:59.823Z,29.10
2017-07-10T07:32:27.621Z,29.20
2017-07-10T07:34:55.413Z,29.20
2017-07-10T07:37:24.651Z,29.20
2017-07-10T07:39:52.408Z,29.20
2017-07-10T07:42:20.763Z,29.20
2017-07-10T07:44:50.935Z,29.20
2017-07-10T07:47:18.754Z,29.30
2017-07-10T07:49:46.532Z,29.30
2017-07-10T07:52:14.823Z,29.30
2017-07-10T07:54:42.628Z,29.30
2017-07-10T07:57:11.326Z,29.30
2017-07-10T07:59:39.691Z,29.30
2017-07-10T08:02:07.409Z,29.40
2017-07-10T08:04:35.127Z,29.40
2017-07-10T08:07:02.838Z,29.40
2017-07-10T08:09:30.570Z,29.40
2017-07-10T08:11:58.927Z,29.40
2017-07-10T08:14:26.694Z,29.40
2017-07-10T08:16:54.470Z,29.40
2017-07-10T08:19:22.451Z,29.40
2017-07-10T08:21:51.295Z,29.40
2017-07-10T08:24:19.490Z,29.40
2017-07-10T08:26:47.986Z,29.40
2017-07-10T08:29:15.795Z,29.40
2017-07-10T08:31:44.842Z,29.40
2017-07-10T08:34:12.616Z,29.40
2017-07-10T08:36:40.525Z,29.40
2017-07-10T08:39:08.430Z,29.40
2017-07-10T08:41:36.161Z,29.50
2017-07-10T08:44:03.874Z,29.50
2017-07-10T08:46:31.640Z,29.50
2017-07-10T08:48:59.339Z,29.50
2017-07-10T08:51:27.131Z,29.50
2017-07-10T08:53:54.841Z,29.50
2017-07-10T08:56:22.559Z,29.60
2017-07-10T08:58:50.367Z,29.60
2017-07-10T09:01:18.097Z,29.60
2017-07-10T09:03:45.815Z,29.60
2017-07-10T09:06:13.620Z,29.60
2017-07-10T09:08:41.404Z,29.60
2017-07-10T09:11:09.111Z,29.60
2017-07-10T09:13:36.891Z,29.60
2017-07-10T09:16:04.606Z,29.60
2017-07-10T09:18:32.323Z,29.60
2017-07-10T09:21:00.630Z,29.60
2017-07-10T09:23:28.399Z,29.60
2017-07-10T09:26:01.918Z,29.60
2017-07-10T09:28:35.482Z,29.60
2017-07-10T09:31:03.218Z,29.60
2017-07-10T09:33:30.983Z,29.60
2017-07-10T09:35:58.727Z,29.60
2017-07-10T09:38:28.718Z,29.70
2017-07-10T09:40:57.483Z,29.60
2017-07-10T09:43:26.061Z,29.70
2017-07-10T09:45:53.845Z,29.60
2017-07-10T09:48:21.589Z,29.70
2017-07-10T09:50:49.320Z,29.70
2017-07-10T09:53:17.065Z,29.70
2017-07-10T09:55:44.864Z,29.70
2017-07-10T09:58:12.626Z,29.70
2017-07-10T10:00:40.337Z,29.70
2017-07-10T10:03:08.056Z,29.70
2017-07-10T10:05:35.773Z,29.70
2017-07-10T10:08:03.483Z,29.70
2017-07-10T10:10:31.251Z,29.70
2017-07-10T10:12:58.978Z,29.70
2017-07-10T10:15:26.765Z,29.70
2017-07-10T10:17:54.678Z,29.80
2017-07-10T10:20:22.447Z,29.70
2017-07-10T10:22:50.329Z,29.70
2017-07-10T10:25:18.052Z,29.80
2017-07-10T10:27:45.801Z,29.80
2017-07-10T10:30:13.508Z,29.80
2017-07-10T10:32:41.274Z,29.80
2017-07-10T10:35:09.056Z,29.80
2017-07-10T10:37:36.828Z,29.80
2017-07-10T10:40:04.588Z,29.80
2017-07-10T10:42:32.937Z,29.80
2017-07-10T10:45:00.711Z,29.90
2017-07-10T10:47:28.489Z,29.90
2017-07-10T10:49:56.273Z,29.80
2017-07-10T10:52:35.513Z,29.80
2017-07-10T10:55:03.332Z,29.80
2017-07-10T10:57:31.049Z,29.80
2017-07-10T10:59:58.782Z,29.80
2017-07-10T11:02:26.571Z,29.80
2017-07-10T11:04:54.344Z,29.80
2017-07-10T11:07:22.047Z,29.80
2017-07-10T11:09:49.812Z,29.80
2017-07-10T11:12:17.593Z,29.90
2017-07-10T11:14:45.358Z,29.90
2017-07-10T11:17:13.293Z,29.80
2017-07-10T11:19:41.842Z,29.80
2017-07-10T11:22:09.635Z,29.80
2017-07-10T11:24:37.416Z,29.80
2017-07-10T11:27:05.274Z,29.80
2017-07-10T11:29:34.523Z,29.80
2017-07-10T11:32:02.340Z,29.80
2017-07-10T11:34:30.913Z,29.90
2017-07-10T11:36:58.693Z,29.80
2017-07-10T11:39:26.416Z,29.90
2017-07-10T11:41:54.204Z,29.80
2017-07-10T11:44:21.913Z,29.90
2017-07-10T11:46:49.672Z,29.90
2017-07-10T11:49:17.515Z,29.90
2017-07-10T11:51:45.242Z,29.90
2017-07-10T11:54:12.955Z,29.90
2017-07-10T11:56:40.748Z,29.90
2017-07-10T11:59:09.394Z,29.90
2017-07-10T12:01:37.164Z,29.90
2017-07-10T12:04:04.896Z,29.90
2017-07-10T12:06:32.630Z,30.00
2017-07-10T12:09:01.092Z,30.00
2017-07-10T12:11:28.875Z,30.00
2017-07-10T12:13:56.595Z,30.00
2017-07-10T12:16:24.367Z,29.90
2017-07-10T12:18:52.167Z,30.00
2017-07-10T12:21:19.908Z,30.00
2017-07-10T12:23:50.030Z,30.10
2017-07-10T12:26:17.732Z,30.10
2017-07-10T12:28:45.503Z,30.10
2017-07-10T12:31:13.280Z,30.10
2017-07-10T12:33:41.004Z,30.10
2017-07-10T12:36:08.771Z,30.20
2017-07-10T12:38:36.499Z,30.20
2017-07-10T12:41:04.218Z,30.30
2017-07-10T12:43:32.616Z,30.40
2017-07-10T12:46:00.350Z,30.40
2017-07-10T12:48:28.068Z,30.40
2017-07-10T12:50:55.777Z,30.30
2017-07-10T12:53:28.155Z,30.30
2017-07-10T12:55:55.862Z,30.40
2017-07-10T12:58:23.639Z,30.40
2017-07-10T13:00:51.360Z,30.40
2017-07-10T13:03:19.080Z,30.30
2017-07-10T13:05:46.929Z,30.30
2017-07-10T13:08:14.696Z,30.30
2017-07-10T13:10:42.469Z,30.30
2017-07-10T13:13:10.720Z,30.20
2017-07-10T13:15:38.424Z,30.30
2017-07-10T13:18:06.145Z,30.40
2017-07-10T13:20:33.935Z,30.40
2017-07-10T13:23:01.698Z,30.50
2017-07-10T13:25:30.171Z,30.50
2017-07-10T13:27:57.908Z,30.50
2017-07-10T13:30:25.686Z,30.50
2017-07-10T13:32:53.409Z,30.50
2017-07-10T13:35:21.163Z,30.60
2017-07-10T13:37:48.925Z,30.50
2017-07-10T13:40:17.071Z,30.50
2017-07-10T13:42:44.821Z,30.50
2017-07-10T13:45:12.578Z,30.50
2017-07-10T13:47:40.349Z,30.60
2017-07-10T13:50:08.087Z,30.70
2017-07-10T13:52:35.850Z,30.80
2017-07-10T13:55:03.638Z,30.80
2017-07-10T13:57:31.430Z,30.90
2017-07-10T13:59:59.134Z,31.00
2017-07-10T14:02:26.843Z,31.10
2017-07-10T14:04:54.625Z,31.10
2017-07-10T14:07:22.340Z,31.00
2017-07-10T14:09:50.117Z,31.10
2017-07-10T14:12:17.899Z,31.20
2017-07-10T14:14:45.621Z,31.00
2017-07-10T14:17:13.789Z,31.00
2017-07-10T14:19:43.609Z,31.00
2017-07-10T14:22:11.378Z,30.90
2017-07-10T14:24:39.186Z,30.80
2017-07-10T14:27:06.959Z,30.70
2017-07-10T14:29:34.667Z,30.60
2017-07-10T14:32:02.453Z,30.70
2017-07-10T14:34:30.158Z,30.80
2017-07-10T14:36:57.913Z,30.90
2017-07-10T14:39:25.686Z,31.00
2017-07-10T14:41:53.422Z,31.00
2017-07-10T14:44:21.132Z,31.00
2017-07-10T14:46:48.923Z,31.00
2017-07-10T14:49:17.417Z,30.90
2017-07-10T14:51:45.181Z,30.90
2017-07-10T14:54:12.899Z,30.90
2017-07-10T14:56:40.611Z,31.10
2017-07-10T14:59:08.319Z,31.40
2017-07-10T15:01:36.090Z,31.40
2017-07-10T15:04:03.872Z,31.40
2017-07-10T15:06:31.603Z,31.40
2017-07-10T15:08:59.420Z,31.30
2017-07-10T15:11:27.191Z,31.30
2017-07-10T15:13:54.909Z,31.30
2017-07-10T15:16:22.642Z,31.30
2017-07-10T15:18:50.403Z,31.40
2017-07-10T15:21:18.180Z,31.50
2017-07-10T15:23:45.919Z,31.50
2017-07-10T15:26:13.686Z,31.60
2017-07-10T15:28:41.394Z,31.50
2017-07-10T15:31:09.138Z,31.60
2017-07-10T15:33:36.851Z,31.50
2017-07-10T15:36:04.575Z,31.60
2017-07-10T15:38:32.342Z,31.50
2017-07-10T15:41:00.106Z,31.40
2017-07-10T15:43:27.843Z,31.50
2017-07-10T15:45:55.638Z,31.50
2017-07-10T15:48:23.401Z,31.60
2017-07-10T15:50:51.214Z,31.70
2017-07-10T15:53:19.005Z,31.70
2017-07-10T15:55:46.770Z,31.90
2017-07-10T15:58:14.490Z,31.80
2017-07-10T16:00:42.236Z,31.80
2017-07-10T16:03:10.028Z,31.90
2017-07-10T16:05:37.755Z,31.90
2017-07-10T16:08:06.261Z,31.80
2017-07-10T16:10:34.040Z,31.70
2017-07-10T16:13:01.811Z,31.60
2017-07-10T16:15:29.545Z,31.70
2017-07-10T16:17:57.319Z,31.70
2017-07-10T16:20:25.023Z,32.00
2017-07-10T16:22:52.804Z,32.10
2017-07-10T16:25:20.539Z,32.50
2017-07-10T16:27:48.305Z,32.50
2017-07-10T16:30:16.291Z,32.20
2017-07-10T16:32:44.026Z,32.10
2017-07-10T16:35:11.799Z,31.90
2017-07-10T16:37:39.539Z,31.90
2017-07-10T16:40:07.275Z,32.20
2017-07-10T16:42:35.007Z,32.10
2017-07-10T16:45:02.804Z,32.50
2017-07-10T16:47:30.506Z,32.90
2017-07-10T16:51:08.318Z,32.90
2017-07-10T16:53:36.083Z,33.10
2017-07-10T16:56:03.799Z,33.10
2017-07-10T16:58:31.528Z,32.90
2017-07-10T17:01:00.124Z,32.60
2017-07-10T17:03:27.924Z,32.40
2017-07-10T17:05:55.627Z,32.30
2017-07-10T17:08:23.392Z,32.20
2017-07-10T17:10:51.156Z,32.20
2017-07-10T17:13:18.909Z,32.30
2017-07-10T17:15:47.900Z,32.60
2017-07-10T17:18:15.663Z,32.70
2017-07-10T17:20:43.425Z,32.50
2017-07-10T17:23:11.306Z,32.40
2017-07-10T17:25:39.218Z,32.30
2017-07-10T17:28:06.935Z,32.30
2017-07-10T17:30:35.402Z,32.20
2017-07-10T17:33:03.205Z,32.30
2017-07-10T17:35:31.036Z,32.20
2017-07-10T17:37:58.811Z,32.20
2017-07-10T17:40:26.573Z,32.10
2017-07-10T17:42:54.362Z,32.10
2017-07-10T17:45:22.065Z,32.10
2017-07-10T17:47:49.862Z,32.20
2017-07-10T17:50:18.428Z,32.10
2017-07-10T17:52:46.372Z,32.10
2017-07-10T17:55:15.825Z,32.20
2017-07-10T17:57:46.722Z,32.10
2017-07-10T18:00:15.448Z,32.00
2017-07-10T18:02:43.543Z,32.00
2017-07-10T18:05:11.698Z,32.00
2017-07-10T18:07:39.490Z,32.00
2017-07-10T18:10:07.216Z,32.00
2017-07-10T18:12:35.042Z,31.90
2017-07-10T18:15:06.843Z,32.00
2017-07-10T18:17:34.615Z,31.90
2017-07-10T18:20:02.423Z,31.90
2017-07-10T18:22:30.220Z,31.90
2017-07-10T18:25:01.390Z,31.90
2017-07-10T18:27:29.240Z,31.90
2017-07-10T18:29:56.970Z,31.90
2017-07-10T18:32:24.749Z,31.90
2017-07-10T18:34:52.492Z,31.90
2017-07-10T18:37:20.330Z,31.90
2017-07-10T18:39:48.113Z,31.80
2017-07-10T18:42:16.596Z,31.80
2017-07-10T18:44:44.432Z,31.80
2017-07-10T18:47:12.189Z,31.70
2017-07-10T18:49:40.635Z,31.80
2017-07-10T18:52:10.407Z,31.70
2017-07-10T18:54:38.911Z,31.70
2017-07-10T18:57:07.493Z,31.70
2017-07-10T18:59:35.220Z,31.60
2017-07-10T19:02:02.987Z,31.70
2017-07-10T19:04:30.735Z,31.70
2017-07-10T19:06:58.487Z,31.60
2017-07-10T19:09:26.255Z,31.60
2017-07-10T19:11:53.999Z,31.60
2017-07-10T19:14:22.517Z,31.60
2017-07-10T19:16:50.288Z,31.60
2017-07-10T19:19:18.013Z,31.60
2017-07-10T19:21:45.770Z,31.60
2017-07-10T19:24:13.505Z,31.60
2017-07-10T19:26:41.247Z,31.60
2017-07-10T19:29:09.011Z,31.60
2017-07-10T19:31:36.780Z,31.60
2017-07-10T19:34:04.499Z,31.60
2017-07-10T19:36:32.437Z,31.60
2017-07-10T19:39:00.161Z,31.60
2017-07-10T19:41:27.874Z,31.60
2017-07-10T19:43:55.637Z,31.50
2017-07-10T19:46:23.408Z,31.50
2017-07-10T19:48:51.173Z,31.50
2017-07-10T19:51:19.749Z,31.50
2017-07-10T19:53:47.479Z,31.50
2017-07-10T19:56:15.971Z,31.50
2017-07-10T19:58:43.705Z,31.40
2017-07-10T20:01:11.433Z,31.50
2017-07-10T20:03:39.178Z,31.40
2017-07-10T20:06:06.896Z,31.40
2017-07-10T20:08:35.504Z,31.30
2017-07-10T20:11:03.293Z,31.30
2017-07-10T20:13:31.076Z,31.20
2017-07-10T20:15:58.811Z,31.20
2017-07-10T20:18:26.600Z,31.10
2017-07-10T20:20:54.332Z,31.10
2017-07-10T20:23:22.100Z,31.10
2017-07-10T20:25:49.890Z,31.00
2017-07-10T20:28:17.625Z,31.00
2017-07-10T20:30:45.387Z,30.90
2017-07-10T20:33:13.107Z,30.90
2017-07-10T20:35:40.823Z,30.90
2017-07-10T20:38:08.599Z,30.80
2017-07-10T20:40:36.332Z,30.80
2017-07-10T20:43:04.134Z,30.80
2017-07-10T20:45:31.847Z,30.80
2017-07-10T20:47:59.716Z,30.80
2017-07-10T20:50:27.440Z,30.70
2017-07-10T20:52:55.240Z,30.80
2017-07-10T20:55:22.973Z,30.70
2017-07-10T20:57:51.041Z,30.70
2017-07-10T21:00:18.775Z,30.70
2017-07-10T21:02:46.578Z,30.70
2017-07-10T21:05:14.350Z,30.70
2017-07-10T21:07:42.119Z,30.70
2017-07-10T21:10:10.138Z,30.70
2017-07-10T21:12:37.852Z,30.60
2017-07-10T21:15:05.579Z,30.50
2017-07-10T21:17:33.391Z,30.50
2017-07-10T21:20:01.872Z,30.40
2017-07-10T21:22:29.656Z,30.30
2017-07-10T21:24:57.376Z,30.40
2017-07-10T21:27:25.309Z,30.30
2017-07-10T21:29:53.027Z,30.30
2017-07-10T21:32:20.854Z,30.30
2017-07-10T21:34:48.627Z,30.30
2017-07-10T21:37:16.341Z,30.20
2017-07-10T21:39:44.049Z,30.20
2017-07-10T21:42:11.818Z,30.20
2017-07-10T21:44:39.595Z,30.20
2017-07-10T21:47:07.339Z,30.10
2017-07-10T21:49:35.052Z,30.10
2017-07-10T21:52:02.769Z,30.10
2017-07-10T21:54:30.583Z,30.10
2017-07-10T21:56:58.356Z,30.10
2017-07-10T21:59:26.125Z,30.00
2017-07-10T22:01:53.915Z,30.10
2017-07-10T22:04:21.641Z,30.00
2017-07-10T22:06:49.410Z,30.00
2017-07-10T22:09:17.203Z,30.00
2017-07-10T22:11:45.008Z,30.00
2017-07-10T22:14:12.805Z,30.00
2017-07-10T22:16:40.554Z,30.00
2017-07-10T22:19:08.271Z,30.00
2017-07-10T22:21:35.988Z,30.00
2017-07-10T22:24:03.792Z,30.00
2017-07-10T22:26:31.505Z,30.00
2017-07-10T22:28:59.281Z,30.00
2017-07-10T22:31:27.064Z,30.00
2017-07-10T22:33:54.845Z,30.00
2017-07-10T22:36:22.568Z,30.10
2017-07-10T22:38:50.317Z,30.10
2017-07-10T22:41:18.864Z,30.00
2017-07-10T22:43:46.665Z,30.00
2017-07-10T22:46:14.417Z,30.00
2017-07-10T22:48:42.189Z,30.00
2017-07-10T22:51:09.976Z,30.00
2017-07-10T22:53:37.706Z,29.90
2017-07-10T22:56:05.438Z,29.90
2017-07-10T22:58:33.168Z,29.90
2017-07-10T23:01:00.959Z,29.90
2017-07-10T23:03:28.729Z,29.80
2017-07-10T23:05:56.457Z,29.80
2017-07-10T23:08:24.235Z,29.80
2017-07-10T23:10:51.957Z,29.80
2017-07-10T23:13:19.725Z,29.80
2017-07-10T23:15:47.525Z,29.70
2017-07-10T23:18:15.308Z,29.70
2017-07-10T23:20:43.101Z,29.70
2017-07-10T23:23:10.855Z,29.70
2017-07-10T23:25:38.644Z,29.70
2017-07-10T23:28:06.406Z,29.60
2017-07-10T23:30:34.131Z,29.70
2017-07-10T23:33:01.910Z,29.70
2017-07-10T23:35:29.606Z,29.60
2017-07-10T23:37:57.409Z,29.60
2017-07-10T23:40:25.132Z,29.60
2017-07-10T23:42:52.856Z,29.60
2017-07-10T23:45:20.673Z,29.70
2017-07-10T23:47:48.458Z,29.50
2017-07-10T23:50:16.193Z,29.60
2017-07-10T23:52:44.012Z,29.60
2017-07-10T23:55:11.767Z,29.50
2017-07-10T23:57:39.487Z,29.50
